Oakesdale, WA

9:18 PM PDT on September 18, 2014 (GMT -0700)
KWAGARFI3 | Change Station
CLOSE
Current Station
Personal Weather Station
Location: Garfield, WA
Elevation: 2520 ft
Nearby Weather Stations

Elev 2520 ft 47.01 °N, 117.15 °W | Updated 2 minutes ago

Mostly Cloudy
Mostly Cloudy
67.0 °F
Feels Like 67.0 °F
N
2.0
Wind Variable Wind from South
Gusts 7.0 mph

Today
High -- | Low -- °F
--% Chance of Precip.
Yesterday
High -- | Low -- °F
Precip. -- in
6:30 AM 6:54 PM
Waning Crescent, 22% visible
Pressure 29.86 in
Visibility 10.0 miles
Clouds Overcast 6500 ft
Dew Point 46 °F
Humidity 47%
Rainfall 0.00 in
Snow Depth 0 in , 0 in , 0 in
UV 0 out of 12
Pollen 7.40 out of 12
Air Quality Not available.
Flu Activity Not available.
METAR KPUW 190353Z AUTO 24015G20KT 10SM OVC065 20/09 A2989 RMK AO2 SLP110 T02000094

More Conditions Fewer Conditions

Pressure 29.86 in
Visibility 10.0 miles
Clouds Overcast 6500 ft
Dew Point 46 °F
Humidity 47%
Rainfall 0.00 in
Snow Depth 0 in , 0 in , 0 in
UV 0 out of 12
Pollen 7.40 out of 12
Air Quality Not available.
Flu Activity Not available.
METAR KPUW 190353Z AUTO 24015G20KT 10SM OVC065 20/09 A2989 RMK AO2 SLP110 T02000094

More Conditions Fewer Conditions

10-Day Weather Forecast

Almanac

Astronomy

Sep. 18, 2014 Rise Set
Actual Time 6:30 AM PDT 6:54 PM PDT
Civil Twilight 6:00 AM PDT 7:25 PM PDT
Nautical Twilight 5:23 AM PDT 8:01 PM PDT
Astronomical Twilight 4:46 AM PDT 8:38 PM PDT
Moon 1:11 AM PDT (9/18) 4:02 PM PDT (9/18)
Length of Visible Light 13h 25m
Length of Day
12h 23m
Tomorrow will be 3m 21s shorter.
Waning Crescent, 22% of the Moon is Illuminated
Sep 19
Waning Crescent
Sep 24
New
Oct 1
First Quarter
Oct 8
Full
Oct 15
Last Quarter

Today's Extremes

State Highs State Lows

Community

WunderPhotos

Upload Photos

1,754,558 photos uploaded!

Nearby

Snow Depth

Station Depth Elevation
Morse Lake 0 in 5400 ft
Spencer Meadow 0 in 3400 ft
Dungeness 0 in 4100 ft
Swift Creek 1 in 3770 ft
Harts Pass 0 in 6500 ft

Earthquake Activity

City Distance Mag. Time & Date
No recent earthquake activity has been reported nearby.
Minimum magnitude displayed is 2.5.

Coastal Water Temperatures

Place Temperature
No Stations Reporting

Nearby Weather Stations